sensor_id;sensor_type;location;lat;lon;timestamp;pressure;altitude;pressure_sealevel;temperature;humidity
81997;BME280;71500;50.806;8.774;2024-02-23T00:01:26;97041.49;;;8.46;61.45
81997;BME280;71500;50.806;8.774;2024-02-23T00:03:57;97047.99;;;8.44;62.00
81997;BME280;71500;50.806;8.774;2024-02-23T00:06:29;97051.44;;;8.42;62.29
81997;BME280;71500;50.806;8.774;2024-02-23T00:09:00;97064.43;;;8.39;62.66
81997;BME280;71500;50.806;8.774;2024-02-23T00:11:32;97075.99;;;8.37;62.92
81997;BME280;71500;50.806;8.774;2024-02-23T00:14:10;97087.23;;;8.35;62.95
81997;BME280;71500;50.806;8.774;2024-02-23T00:16:41;97105.46;;;8.32;63.04
81997;BME280;71500;50.806;8.774;2024-02-23T00:19:13;97105.67;;;8.29;63.10
81997;BME280;71500;50.806;8.774;2024-02-23T00:21:45;97109.56;;;8.25;63.28
81997;BME280;71500;50.806;8.774;2024-02-23T00:24:20;97117.90;;;8.21;63.47
81997;BME280;71500;50.806;8.774;2024-02-23T00:26:51;97128.85;;;8.18;63.48
81997;BME280;71500;50.806;8.774;2024-02-23T00:29:23;97139.95;;;8.16;63.35
81997;BME280;71500;50.806;8.774;2024-02-23T00:31:54;97148.99;;;8.13;63.24
81997;BME280;71500;50.806;8.774;2024-02-23T00:34:26;97154.84;;;8.11;63.27
81997;BME280;71500;50.806;8.774;2024-02-23T00:36:57;97173.05;;;8.10;63.55
81997;BME280;71500;50.806;8.774;2024-02-23T00:39:29;97187.15;;;8.09;64.22
81997;BME280;71500;50.806;8.774;2024-02-23T00:42:01;97189.35;;;8.06;65.62
81997;BME280;71500;50.806;8.774;2024-02-23T00:44:32;97196.09;;;8.06;66.47
81997;BME280;71500;50.806;8.774;2024-02-23T00:47:05;97196.64;;;8.05;66.75
81997;BME280;71500;50.806;8.774;2024-02-23T00:49:37;97201.31;;;8.04;67.17
81997;BME280;71500;50.806;8.774;2024-02-23T00:52:08;97211.49;;;8.03;67.26
81997;BME280;71500;50.806;8.774;2024-02-23T00:54:39;97218.23;;;8.03;67.02
81997;BME280;71500;50.806;8.774;2024-02-23T00:57:11;97218.19;;;8.00;66.06
81997;BME280;71500;50.806;8.774;2024-02-23T00:59:42;97221.39;;;7.99;66.33
81997;BME280;71500;50.806;8.774;2024-02-23T01:02:13;97223.10;;;7.99;66.12
81997;BME280;71500;50.806;8.774;2024-02-23T01:04:45;97228.27;;;7.99;65.93
81997;BME280;71500;50.806;8.774;2024-02-23T01:07:16;97226.73;;;7.99;66.28
81997;BME280;71500;50.806;8.774;2024-02-23T01:09:47;97236.46;;;8.01;66.29
81997;BME280;71500;50.806;8.774;2024-02-23T01:12:19;97244.52;;;8.02;66.20
81997;BME280;71500;50.806;8.774;2024-02-23T01:14:50;97249.88;;;8.03;66.41
81997;BME280;71500;50.806;8.774;2024-02-23T01:17:22;97255.20;;;8.03;66.49
81997;BME280;71500;50.806;8.774;2024-02-23T01:19:53;97254.85;;;8.01;65.97
81997;BME280;71500;50.806;8.774;2024-02-23T01:22:25;97255.58;;;7.98;65.90
81997;BME280;71500;50.806;8.774;2024-02-23T01:24:56;97252.62;;;7.94;65.26
81997;BME280;71500;50.806;8.774;2024-02-23T01:27:27;97271.67;;;7.90;65.18
81997;BME280;71500;50.806;8.774;2024-02-23T01:29:59;97283.88;;;7.86;65.15
81997;BME280;71500;50.806;8.774;2024-02-23T01:32:30;97296.15;;;7.82;65.12
81997;BME280;71500;50.806;8.774;2024-02-23T01:35:02;97321.30;;;7.79;65.70
81997;BME280;71500;50.806;8.774;2024-02-23T01:37:34;97332.14;;;7.71;66.95
81997;BME280;71500;50.806;8.774;2024-02-23T01:40:07;97343.19;;;7.56;69.43
81997;BME280;71500;50.806;8.774;2024-02-23T01:42:39;97344.62;;;7.44;70.34
81997;BME280;71500;50.806;8.774;2024-02-23T01:45:10;97347.56;;;7.32;70.04
81997;BME280;71500;50.806;8.774;2024-02-23T01:47:42;97344.42;;;7.19;69.87
81997;BME280;71500;50.806;8.774;2024-02-23T01:50:13;97343.99;;;7.08;70.34
81997;BME280;71500;50.806;8.774;2024-02-23T01:52:45;97342.11;;;6.99;70.88
81997;BME280;71500;50.806;8.774;2024-02-23T01:55:17;97348.35;;;6.91;71.09
81997;BME280;71500;50.806;8.774;2024-02-23T01:57:49;97347.55;;;6.84;71.18
81997;BME280;71500;50.806;8.774;2024-02-23T02:00:21;97347.70;;;6.78;71.43
81997;BME280;71500;50.806;8.774;2024-02-23T02:02:52;97355.26;;;6.74;71.38
81997;BME280;71500;50.806;8.774;2024-02-23T02:05:24;97359.78;;;6.68;71.48
81997;BME280;71500;50.806;8.774;2024-02-23T02:07:56;97370.34;;;6.64;71.46
81997;BME280;71500;50.806;8.774;2024-02-23T02:10:30;97369.72;;;6.58;71.46
81997;BME280;71500;50.806;8.774;2024-02-23T02:13:04;97373.96;;;6.53;71.51
81997;BME280;71500;50.806;8.774;2024-02-23T02:15:36;97376.68;;;6.48;71.34
81997;BME280;71500;50.806;8.774;2024-02-23T02:18:08;97375.03;;;6.47;70.92
81997;BME280;71500;50.806;8.774;2024-02-23T02:20:44;97373.42;;;6.44;70.25
81997;BME280;71500;50.806;8.774;2024-02-23T02:23:21;97380.77;;;6.43;70.31
81997;BME280;71500;50.806;8.774;2024-02-23T02:25:56;97386.93;;;6.43;69.68
81997;BME280;71500;50.806;8.774;2024-02-23T02:28:29;97386.14;;;6.40;70.02
81997;BME280;71500;50.806;8.774;2024-02-23T02:31:01;97388.23;;;6.41;69.68
81997;BME280;71500;50.806;8.774;2024-02-23T02:33:33;97394.31;;;6.38;69.78
81997;BME280;71500;50.806;8.774;2024-02-23T02:36:06;97398.61;;;6.38;69.86
81997;BME280;71500;50.806;8.774;2024-02-23T02:38:37;97399.23;;;6.37;69.72
81997;BME280;71500;50.806;8.774;2024-02-23T02:41:09;97405.39;;;6.35;69.78
81997;BME280;71500;50.806;8.774;2024-02-23T02:43:41;97414.58;;;6.34;69.25
81997;BME280;71500;50.806;8.774;2024-02-23T02:46:12;97422.06;;;6.29;68.85
81997;BME280;71500;50.806;8.774;2024-02-23T02:48:44;97425.08;;;6.24;68.58
81997;BME280;71500;50.806;8.774;2024-02-23T02:51:15;97429.05;;;6.20;68.87
81997;BME280;71500;50.806;8.774;2024-02-23T02:53:47;97428.81;;;6.18;68.54
81997;BME280;71500;50.806;8.774;2024-02-23T02:56:18;97430.14;;;6.14;68.29
81997;BME280;71500;50.806;8.774;2024-02-23T02:58:50;97431.80;;;6.11;68.52
81997;BME280;71500;50.806;8.774;2024-02-23T03:01:21;97431.09;;;6.10;68.45
81997;BME280;71500;50.806;8.774;2024-02-23T03:03:53;97432.14;;;6.07;68.35
81997;BME280;71500;50.806;8.774;2024-02-23T03:06:24;97434.62;;;6.05;68.34
81997;BME280;71500;50.806;8.774;2024-02-23T03:08:56;97433.66;;;6.02;68.28
81997;BME280;71500;50.806;8.774;2024-02-23T03:11:27;97428.87;;;5.99;68.11
81997;BME280;71500;50.806;8.774;2024-02-23T03:13:59;97432.56;;;5.96;68.14
81997;BME280;71500;50.806;8.774;2024-02-23T03:16:31;97436.10;;;5.93;68.15
81997;BME280;71500;50.806;8.774;2024-02-23T03:19:04;97445.10;;;5.89;68.20
81997;BME280;71500;50.806;8.774;2024-02-23T03:21:38;97441.92;;;5.86;68.45
81997;BME280;71500;50.806;8.774;2024-02-23T03:24:09;97448.40;;;5.88;68.83
81997;BME280;71500;50.806;8.774;2024-02-23T03:26:41;97452.51;;;5.89;69.35
81997;BME280;71500;50.806;8.774;2024-02-23T03:29:13;97457.85;;;5.90;69.53
81997;BME280;71500;50.806;8.774;2024-02-23T03:31:44;97464.03;;;5.93;69.66
81997;BME280;71500;50.806;8.774;2024-02-23T03:34:16;97466.15;;;5.97;69.43
81997;BME280;71500;50.806;8.774;2024-02-23T03:36:47;97477.84;;;5.98;69.41
81997;BME280;71500;50.806;8.774;2024-02-23T03:39:19;97475.02;;;5.98;69.32
81997;BME280;71500;50.806;8.774;2024-02-23T03:41:50;97474.80;;;5.98;69.39
81997;BME280;71500;50.806;8.774;2024-02-23T03:44:22;97476.73;;;6.00;69.33
81997;BME280;71500;50.806;8.774;2024-02-23T03:46:54;97482.51;;;6.00;69.25
81997;BME280;71500;50.806;8.774;2024-02-23T03:49:26;97485.20;;;5.98;69.24
81997;BME280;71500;50.806;8.774;2024-02-23T03:51:58;97483.08;;;5.93;69.31
81997;BME280;71500;50.806;8.774;2024-02-23T03:54:30;97480.83;;;5.88;69.45
81997;BME280;71500;50.806;8.774;2024-02-23T03:57:01;97483.53;;;5.82;69.50
81997;BME280;71500;50.806;8.774;2024-02-23T03:59:35;97482.19;;;5.77;69.49
81997;BME280;71500;50.806;8.774;2024-02-23T04:02:06;97487.41;;;5.71;69.66
81997;BME280;71500;50.806;8.774;2024-02-23T04:04:39;97491.21;;;5.65;69.89
81997;BME280;71500;50.806;8.774;2024-02-23T04:07:10;97492.70;;;5.59;70.36
81997;BME280;71500;50.806;8.774;2024-02-23T04:09:42;97494.66;;;5.56;70.38
81997;BME280;71500;50.806;8.774;2024-02-23T04:12:13;97497.00;;;5.56;70.47
81997;BME280;71500;50.806;8.774;2024-02-23T04:14:45;97501.47;;;5.58;70.49
81997;BME280;71500;50.806;8.774;2024-02-23T04:17:17;97499.42;;;5.57;70.64
81997;BME280;71500;50.806;8.774;2024-02-23T04:19:49;97502.53;;;5.58;70.72
81997;BME280;71500;50.806;8.774;2024-02-23T04:22:20;97509.43;;;5.59;70.82
81997;BME280;71500;50.806;8.774;2024-02-23T04:24:51;97514.09;;;5.62;70.64
81997;BME280;71500;50.806;8.774;2024-02-23T04:27:23;97510.35;;;5.60;70.55
81997;BME280;71500;50.806;8.774;2024-02-23T04:29:54;97505.79;;;5.60;70.51
81997;BME280;71500;50.806;8.774;2024-02-23T04:32:26;97507.25;;;5.59;70.64
81997;BME280;71500;50.806;8.774;2024-02-23T04:34:57;97507.32;;;5.59;70.47
81997;BME280;71500;50.806;8.774;2024-02-23T04:37:29;97514.44;;;5.57;70.35
81997;BME280;71500;50.806;8.774;2024-02-23T04:40:07;97515.23;;;5.54;70.42
81997;BME280;71500;50.806;8.774;2024-02-23T04:42:38;97514.71;;;5.52;70.58
81997;BME280;71500;50.806;8.774;2024-02-23T04:45:10;97509.73;;;5.51;70.56
81997;BME280;71500;50.806;8.774;2024-02-23T04:47:42;97515.10;;;5.50;70.38
81997;BME280;71500;50.806;8.774;2024-02-23T04:50:14;97519.96;;;5.51;70.44
81997;BME280;71500;50.806;8.774;2024-02-23T04:52:45;97521.70;;;5.51;70.26
81997;BME280;71500;50.806;8.774;2024-02-23T04:55:17;97522.92;;;5.50;70.37
81997;BME280;71500;50.806;8.774;2024-02-23T04:57:48;97522.49;;;5.50;70.28
81997;BME280;71500;50.806;8.774;2024-02-23T05:00:21;97523.98;;;5.50;70.24
81997;BME280;71500;50.806;8.774;2024-02-23T05:02:52;97518.48;;;5.50;70.23
81997;BME280;71500;50.806;8.774;2024-02-23T05:05:24;97516.20;;;5.55;69.96
81997;BME280;71500;50.806;8.774;2024-02-23T05:07:55;97513.84;;;5.57;69.63
81997;BME280;71500;50.806;8.774;2024-02-23T05:10:27;97506.39;;;5.59;69.61
81997;BME280;71500;50.806;8.774;2024-02-23T05:12:58;97505.57;;;5.62;69.49
81997;BME280;71500;50.806;8.774;2024-02-23T05:15:29;97510.97;;;5.63;69.49
81997;BME280;71500;50.806;8.774;2024-02-23T05:18:00;97511.40;;;5.65;69.41
81997;BME280;71500;50.806;8.774;2024-02-23T05:20:32;97523.09;;;5.68;69.20
81997;BME280;71500;50.806;8.774;2024-02-23T05:23:04;97523.89;;;5.67;69.26
81997;BME280;71500;50.806;8.774;2024-02-23T05:25:35;97530.98;;;5.68;69.07
81997;BME280;71500;50.806;8.774;2024-02-23T05:28:07;97532.07;;;5.68;69.15
81997;BME280;71500;50.806;8.774;2024-02-23T05:30:38;97539.40;;;5.69;69.05
81997;BME280;71500;50.806;8.774;2024-02-23T05:33:09;97541.05;;;5.70;68.98
81997;BME280;71500;50.806;8.774;2024-02-23T05:35:41;97539.83;;;5.69;68.71
81997;BME280;71500;50.806;8.774;2024-02-23T05:38:13;97540.59;;;5.69;68.37
81997;BME280;71500;50.806;8.774;2024-02-23T05:40:44;97548.11;;;5.66;67.78
81997;BME280;71500;50.806;8.774;2024-02-23T05:43:16;97553.48;;;5.63;67.36
81997;BME280;71500;50.806;8.774;2024-02-23T05:45:48;97558.96;;;5.60;67.54
81997;BME280;71500;50.806;8.774;2024-02-23T05:48:19;97557.55;;;5.57;67.32
81997;BME280;71500;50.806;8.774;2024-02-23T05:50:51;97560.89;;;5.53;67.44
81997;BME280;71500;50.806;8.774;2024-02-23T05:53:23;97556.33;;;5.52;67.75
81997;BME280;71500;50.806;8.774;2024-02-23T05:55:54;97562.85;;;5.51;67.87
81997;BME280;71500;50.806;8.774;2024-02-23T05:58:27;97559.73;;;5.53;67.83
81997;BME280;71500;50.806;8.774;2024-02-23T06:00:58;97557.88;;;5.54;67.91
81997;BME280;71500;50.806;8.774;2024-02-23T06:03:30;97552.41;;;5.55;68.04
81997;BME280;71500;50.806;8.774;2024-02-23T06:06:01;97550.23;;;5.56;67.95
81997;BME280;71500;50.806;8.774;2024-02-23T06:08:33;97547.33;;;5.57;67.85
81997;BME280;71500;50.806;8.774;2024-02-23T06:11:05;97547.21;;;5.58;67.90
81997;BME280;71500;50.806;8.774;2024-02-23T06:13:37;97543.99;;;5.63;67.63
81997;BME280;71500;50.806;8.774;2024-02-23T06:16:12;97536.81;;;5.65;67.23
81997;BME280;71500;50.806;8.774;2024-02-23T06:18:44;97539.21;;;5.64;67.27
81997;BME280;71500;50.806;8.774;2024-02-23T06:21:16;97540.48;;;5.63;67.17
81997;BME280;71500;50.806;8.774;2024-02-23T06:23:47;97542.71;;;5.62;67.32
81997;BME280;71500;50.806;8.774;2024-02-23T06:26:19;97542.98;;;5.61;67.52
81997;BME280;71500;50.806;8.774;2024-02-23T06:28:50;97548.88;;;5.61;67.56
81997;BME280;71500;50.806;8.774;2024-02-23T06:31:22;97551.80;;;5.58;67.40
81997;BME280;71500;50.806;8.774;2024-02-23T06:33:54;97558.23;;;5.55;67.54
81997;BME280;71500;50.806;8.774;2024-02-23T06:36:26;97565.06;;;5.52;67.63
81997;BME280;71500;50.806;8.774;2024-02-23T06:38:57;97566.77;;;5.51;67.70
81997;BME280;71500;50.806;8.774;2024-02-23T06:41:28;97567.66;;;5.49;67.58
81997;BME280;71500;50.806;8.774;2024-02-23T06:44:01;97571.88;;;5.47;67.68
81997;BME280;71500;50.806;8.774;2024-02-23T06:46:33;97578.61;;;5.47;67.67
81997;BME280;71500;50.806;8.774;2024-02-23T06:49:05;97582.84;;;5.47;67.33
81997;BME280;71500;50.806;8.774;2024-02-23T06:51:36;97586.92;;;5.47;67.10
81997;BME280;71500;50.806;8.774;2024-02-23T06:54:08;97591.41;;;5.46;66.89
81997;BME280;71500;50.806;8.774;2024-02-23T06:56:39;97589.39;;;5.45;66.88
81997;BME280;71500;50.806;8.774;2024-02-23T06:59:10;97588.08;;;5.46;66.80
81997;BME280;71500;50.806;8.774;2024-02-23T07:01:50;97588.96;;;5.51;66.64
81997;BME280;71500;50.806;8.774;2024-02-23T07:04:20;97591.08;;;5.56;66.86
81997;BME280;71500;50.806;8.774;2024-02-23T07:06:52;97598.83;;;5.64;66.84
81997;BME280;71500;50.806;8.774;2024-02-23T07:09:24;97596.39;;;5.67;66.93
81997;BME280;71500;50.806;8.774;2024-02-23T07:11:55;97606.27;;;5.72;66.81
81997;BME280;71500;50.806;8.774;2024-02-23T07:14:27;97612.34;;;5.76;66.97
81997;BME280;71500;50.806;8.774;2024-02-23T07:16:59;97614.52;;;5.81;66.76
81997;BME280;71500;50.806;8.774;2024-02-23T07:19:30;97617.52;;;5.84;66.89
81997;BME280;71500;50.806;8.774;2024-02-23T07:22:02;97618.61;;;5.87;66.40
81997;BME280;71500;50.806;8.774;2024-02-23T07:24:33;97624.10;;;5.89;66.30
81997;BME280;71500;50.806;8.774;2024-02-23T07:27:06;97624.17;;;5.90;66.05
81997;BME280;71500;50.806;8.774;2024-02-23T07:29:37;97623.30;;;5.89;65.95
81997;BME280;71500;50.806;8.774;2024-02-23T07:32:09;97617.38;;;5.91;65.90
81997;BME280;71500;50.806;8.774;2024-02-23T07:34:41;97609.42;;;5.91;65.95
81997;BME280;71500;50.806;8.774;2024-02-23T07:37:13;97608.86;;;5.93;65.77
81997;BME280;71500;50.806;8.774;2024-02-23T07:39:44;97608.41;;;5.94;66.00
81997;BME280;71500;50.806;8.774;2024-02-23T07:42:16;97613.17;;;5.97;66.26
81997;BME280;71500;50.806;8.774;2024-02-23T07:44:49;97610.70;;;5.97;66.32
81997;BME280;71500;50.806;8.774;2024-02-23T07:47:20;97614.42;;;5.98;66.59
81997;BME280;71500;50.806;8.774;2024-02-23T07:49:51;97621.67;;;6.00;66.90
81997;BME280;71500;50.806;8.774;2024-02-23T07:52:23;97624.91;;;6.01;67.11
81997;BME280;71500;50.806;8.774;2024-02-23T07:54:55;97627.21;;;6.03;67.20
81997;BME280;71500;50.806;8.774;2024-02-23T07:57:27;97631.52;;;6.05;67.27
81997;BME280;71500;50.806;8.774;2024-02-23T07:59:58;97637.88;;;6.10;67.22
81997;BME280;71500;50.806;8.774;2024-02-23T08:02:30;97640.53;;;6.15;67.13
81997;BME280;71500;50.806;8.774;2024-02-23T08:05:02;97636.84;;;6.20;67.13
81997;BME280;71500;50.806;8.774;2024-02-23T08:07:34;97638.44;;;6.23;66.90
81997;BME280;71500;50.806;8.774;2024-02-23T08:10:08;97634.85;;;6.27;66.84
81997;BME280;71500;50.806;8.774;2024-02-23T08:12:39;97632.84;;;6.31;66.69
81997;BME280;71500;50.806;8.774;2024-02-23T08:15:13;97634.32;;;6.34;66.55
81997;BME280;71500;50.806;8.774;2024-02-23T08:17:44;97636.67;;;6.37;66.29
81997;BME280;71500;50.806;8.774;2024-02-23T08:20:16;97633.36;;;6.38;66.11
81997;BME280;71500;50.806;8.774;2024-02-23T08:22:48;97634.86;;;6.39;66.21
81997;BME280;71500;50.806;8.774;2024-02-23T08:25:19;97640.73;;;6.40;66.05
81997;BME280;71500;50.806;8.774;2024-02-23T08:27:50;97639.84;;;6.38;65.98
81997;BME280;71500;50.806;8.774;2024-02-23T08:30:22;97639.41;;;6.37;65.85
81997;BME280;71500;50.806;8.774;2024-02-23T08:32:53;97642.55;;;6.36;65.83
81997;BME280;71500;50.806;8.774;2024-02-23T08:35:25;97645.02;;;6.36;65.93
81997;BME280;71500;50.806;8.774;2024-02-23T08:37:56;97642.80;;;6.35;65.93
81997;BME280;71500;50.806;8.774;2024-02-23T08:40:28;97642.16;;;6.35;65.76
81997;BME280;71500;50.806;8.774;2024-02-23T08:42:59;97650.27;;;6.36;65.71
81997;BME280;71500;50.806;8.774;2024-02-23T08:45:30;97648.73;;;6.36;66.03
81997;BME280;71500;50.806;8.774;2024-02-23T08:48:03;97650.35;;;6.37;65.80
81997;BME280;71500;50.806;8.774;2024-02-23T08:50:35;97651.70;;;6.36;65.16
81997;BME280;71500;50.806;8.774;2024-02-23T08:53:08;97647.54;;;6.34;65.07
81997;BME280;71500;50.806;8.774;2024-02-23T08:55:40;97646.05;;;6.35;65.47
81997;BME280;71500;50.806;8.774;2024-02-23T08:58:11;97645.62;;;6.35;65.44
81997;BME280;71500;50.806;8.774;2024-02-23T09:00:43;97642.70;;;6.38;65.51
81997;BME280;71500;50.806;8.774;2024-02-23T09:03:14;97641.43;;;6.41;65.74
81997;BME280;71500;50.806;8.774;2024-02-23T09:05:45;97650.04;;;6.45;65.57
81997;BME280;71500;50.806;8.774;2024-02-23T09:08:18;97650.11;;;6.49;65.59
81997;BME280;71500;50.806;8.774;2024-02-23T09:10:50;97649.20;;;6.53;65.64
81997;BME280;71500;50.806;8.774;2024-02-23T09:13:21;97652.38;;;6.56;65.52
81997;BME280;71500;50.806;8.774;2024-02-23T09:15:52;97647.45;;;6.56;65.42
81997;BME280;71500;50.806;8.774;2024-02-23T09:18:24;97644.59;;;6.58;65.46
81997;BME280;71500;50.806;8.774;2024-02-23T09:20:55;97650.80;;;6.61;65.48
81997;BME280;71500;50.806;8.774;2024-02-23T09:23:27;97655.35;;;6.69;65.61
81997;BME280;71500;50.806;8.774;2024-02-23T09:25:58;97655.96;;;6.78;65.75
81997;BME280;71500;50.806;8.774;2024-02-23T09:28:32;97657.86;;;6.87;65.10
81997;BME280;71500;50.806;8.774;2024-02-23T09:31:02;97652.14;;;6.92;65.32
81997;BME280;71500;50.806;8.774;2024-02-23T09:33:34;97651.42;;;6.99;64.73
81997;BME280;71500;50.806;8.774;2024-02-23T09:36:07;97652.02;;;7.02;64.14
81997;BME280;71500;50.806;8.774;2024-02-23T09:38:39;97657.17;;;7.01;63.81
81997;BME280;71500;50.806;8.774;2024-02-23T09:41:17;97654.63;;;7.02;64.21
81997;BME280;71500;50.806;8.774;2024-02-23T09:43:49;97659.45;;;7.04;64.11
81997;BME280;71500;50.806;8.774;2024-02-23T09:46:21;97656.79;;;7.05;63.84
81997;BME280;71500;50.806;8.774;2024-02-23T09:48:53;97654.95;;;7.04;63.51
81997;BME280;71500;50.806;8.774;2024-02-23T09:51:26;97658.29;;;7.02;63.49
81997;BME280;71500;50.806;8.774;2024-02-23T09:53:58;97652.68;;;7.00;63.22
81997;BME280;71500;50.806;8.774;2024-02-23T09:56:29;97649.70;;;6.99;63.16
81997;BME280;71500;50.806;8.774;2024-02-23T09:59:03;97648.25;;;6.97;63.02
81997;BME280;71500;50.806;8.774;2024-02-23T10:01:35;97646.75;;;6.97;62.95
81997;BME280;71500;50.806;8.774;2024-02-23T10:04:07;97643.55;;;6.95;62.82
81997;BME280;71500;50.806;8.774;2024-02-23T10:06:39;97643.48;;;6.94;62.78
81997;BME280;71500;50.806;8.774;2024-02-23T10:09:10;97641.99;;;6.95;62.72
81997;BME280;71500;50.806;8.774;2024-02-23T10:11:43;97642.48;;;6.97;62.82
81997;BME280;71500;50.806;8.774;2024-02-23T10:14:14;97634.95;;;6.99;62.74
81997;BME280;71500;50.806;8.774;2024-02-23T10:16:46;97632.36;;;7.04;62.92
81997;BME280;71500;50.806;8.774;2024-02-23T10:19:18;97642.30;;;7.11;62.67
81997;BME280;71500;50.806;8.774;2024-02-23T10:21:49;97641.14;;;7.17;62.37
81997;BME280;71500;50.806;8.774;2024-02-23T10:24:23;97638.52;;;7.21;61.73
81997;BME280;71500;50.806;8.774;2024-02-23T10:26:55;97636.59;;;7.24;62.09
81997;BME280;71500;50.806;8.774;2024-02-23T10:29:28;97638.64;;;7.32;62.56
81997;BME280;71500;50.806;8.774;2024-02-23T10:31:59;97641.11;;;7.40;62.07
81997;BME280;71500;50.806;8.774;2024-02-23T10:34:35;97641.70;;;7.49;61.90
81997;BME280;71500;50.806;8.774;2024-02-23T10:37:10;97650.30;;;7.57;61.12
81997;BME280;71500;50.806;8.774;2024-02-23T10:39:41;97649.65;;;7.66;61.02
81997;BME280;71500;50.806;8.774;2024-02-23T10:42:14;97653.16;;;7.73;60.62
81997;BME280;71500;50.806;8.774;2024-02-23T10:44:49;97652.50;;;7.75;60.34
81997;BME280;71500;50.806;8.774;2024-02-23T10:47:22;97661.27;;;7.84;60.83
81997;BME280;71500;50.806;8.774;2024-02-23T10:49:55;97658.84;;;7.88;60.17
81997;BME280;71500;50.806;8.774;2024-02-23T10:52:27;97656.66;;;7.89;60.02
81997;BME280;71500;50.806;8.774;2024-02-23T10:55:01;97650.73;;;7.90;60.23
81997;BME280;71500;50.806;8.774;2024-02-23T10:57:35;97652.77;;;7.92;60.32
81997;BME280;71500;50.806;8.774;2024-02-23T11:00:07;97650.34;;;7.93;60.09
81997;BME280;71500;50.806;8.774;2024-02-23T11:02:43;97657.91;;;7.96;59.18
81997;BME280;71500;50.806;8.774;2024-02-23T11:05:17;97657.15;;;7.98;58.60
81997;BME280;71500;50.806;8.774;2024-02-23T11:07:49;97660.05;;;8.01;58.42
81997;BME280;71500;50.806;8.774;2024-02-23T11:10:23;97662.96;;;8.03;57.98
81997;BME280;71500;50.806;8.774;2024-02-23T11:13:01;97659.81;;;8.04;57.57
81997;BME280;71500;50.806;8.774;2024-02-23T11:15:33;97659.88;;;8.06;57.62
81997;BME280;71500;50.806;8.774;2024-02-23T11:18:23;97661.23;;;8.08;57.65
81997;BME280;71500;50.806;8.774;2024-02-23T11:21:00;97657.83;;;8.09;57.50
81997;BME280;71500;50.806;8.774;2024-02-23T11:23:41;97654.49;;;8.11;57.11
81997;BME280;71500;50.806;8.774;2024-02-23T11:26:13;97650.77;;;8.11;56.98
81997;BME280;71500;50.806;8.774;2024-02-23T11:28:48;97656.39;;;8.16;56.63
81997;BME280;71500;50.806;8.774;2024-02-23T11:31:23;97647.41;;;8.17;56.07
81997;BME280;71500;50.806;8.774;2024-02-23T11:33:56;97648.81;;;8.16;56.28
81997;BME280;71500;50.806;8.774;2024-02-23T11:36:31;97650.92;;;8.16;56.83
81997;BME280;71500;50.806;8.774;2024-02-23T11:39:04;97650.53;;;8.15;57.02
81997;BME280;71500;50.806;8.774;2024-02-23T11:41:37;97644.70;;;8.15;57.34
81997;BME280;71500;50.806;8.774;2024-02-23T11:44:09;97643.65;;;8.17;57.53
81997;BME280;71500;50.806;8.774;2024-02-23T11:46:44;97642.05;;;8.22;57.73
81997;BME280;71500;50.806;8.774;2024-02-23T11:49:16;97642.88;;;8.26;57.45
81997;BME280;71500;50.806;8.774;2024-02-23T11:51:48;97652.48;;;8.30;56.89
81997;BME280;71500;50.806;8.774;2024-02-23T11:54:19;97655.56;;;8.31;57.12
81997;BME280;71500;50.806;8.774;2024-02-23T11:56:52;97647.78;;;8.34;57.20
81997;BME280;71500;50.806;8.774;2024-02-23T11:59:23;97655.56;;;8.37;56.97
81997;BME280;71500;50.806;8.774;2024-02-23T12:01:56;97659.09;;;8.38;56.90
81997;BME280;71500;50.806;8.774;2024-02-23T12:04:29;97656.86;;;8.37;56.17
81997;BME280;71500;50.806;8.774;2024-02-23T12:07:02;97662.07;;;8.34;56.33
81997;BME280;71500;50.806;8.774;2024-02-23T12:09:33;97666.12;;;8.33;56.47
81997;BME280;71500;50.806;8.774;2024-02-23T12:12:05;97667.93;;;8.31;56.32
81997;BME280;71500;50.806;8.774;2024-02-23T12:14:37;97667.07;;;8.31;56.29
81997;BME280;71500;50.806;8.774;2024-02-23T12:17:10;97668.84;;;8.30;56.48
81997;BME280;71500;50.806;8.774;2024-02-23T12:19:42;97666.44;;;8.30;56.72
81997;BME280;71500;50.806;8.774;2024-02-23T12:22:13;97672.56;;;8.32;56.69
81997;BME280;71500;50.806;8.774;2024-02-23T12:24:46;97667.80;;;8.34;56.72
81997;BME280;71500;50.806;8.774;2024-02-23T12:27:17;97661.31;;;8.35;57.03
81997;BME280;71500;50.806;8.774;2024-02-23T12:29:52;97666.20;;;8.39;57.15
81997;BME280;71500;50.806;8.774;2024-02-23T12:32:23;97662.02;;;8.42;57.31
81997;BME280;71500;50.806;8.774;2024-02-23T12:34:55;97661.86;;;8.44;56.85
81997;BME280;71500;50.806;8.774;2024-02-23T12:37:26;97666.17;;;8.47;56.53
81997;BME280;71500;50.806;8.774;2024-02-23T12:39:58;97664.98;;;8.49;56.60
81997;BME280;71500;50.806;8.774;2024-02-23T12:42:29;97661.06;;;8.51;56.47
81997;BME280;71500;50.806;8.774;2024-02-23T12:45:01;97665.38;;;8.52;56.60
81997;BME280;71500;50.806;8.774;2024-02-23T12:47:32;97663.41;;;8.54;56.88
81997;BME280;71500;50.806;8.774;2024-02-23T12:50:05;97661.45;;;8.52;56.87
81997;BME280;71500;50.806;8.774;2024-02-23T12:52:38;97659.13;;;8.52;57.11
81997;BME280;71500;50.806;8.774;2024-02-23T12:55:09;97662.91;;;8.55;57.17
81997;BME280;71500;50.806;8.774;2024-02-23T12:57:41;97660.80;;;8.60;57.37
81997;BME280;71500;50.806;8.774;2024-02-23T13:00:14;97654.40;;;8.64;56.56
81997;BME280;71500;50.806;8.774;2024-02-23T13:02:46;97654.85;;;8.68;56.24
81997;BME280;71500;50.806;8.774;2024-02-23T13:05:18;97655.98;;;8.71;55.69
81997;BME280;71500;50.806;8.774;2024-02-23T13:07:49;97651.77;;;8.74;55.07
81997;BME280;71500;50.806;8.774;2024-02-23T13:10:20;97653.66;;;8.77;53.68
81997;BME280;71500;50.806;8.774;2024-02-23T13:12:52;97653.31;;;8.78;52.67
81997;BME280;71500;50.806;8.774;2024-02-23T13:15:23;97653.73;;;8.81;52.37
81997;BME280;71500;50.806;8.774;2024-02-23T13:17:55;97658.30;;;8.85;53.02
81997;BME280;71500;50.806;8.774;2024-02-23T13:20:27;97659.73;;;8.91;53.19
81997;BME280;71500;50.806;8.774;2024-02-23T13:22:59;97656.52;;;8.95;53.53
81997;BME280;71500;50.806;8.774;2024-02-23T13:25:30;97659.92;;;8.97;53.41
81997;BME280;71500;50.806;8.774;2024-02-23T13:28:02;97658.84;;;8.96;53.21
81997;BME280;71500;50.806;8.774;2024-02-23T13:30:35;97651.41;;;8.96;53.52
81997;BME280;71500;50.806;8.774;2024-02-23T13:33:07;97654.68;;;8.97;53.67
81997;BME280;71500;50.806;8.774;2024-02-23T13:35:41;97653.33;;;8.96;53.18